Time;durP1;ratioP1;P1;durP2;ratioP2;P2;SDS_P1;SDS_P2;PMS_P1;PMS_P2;Temp;Humidity;BMP_temperature;BMP_pressure;BME280_temperature;BME280_humidity;BME280_pressure;Samples;Min_cycle;Max_cycle;Signal;HPM_P1;HPM_P2
2022/01/19 00:01:09;;;;;;;13.40;8.50;;;4.10;99.90;;;;;;4284755;28;10000615;-72
2022/01/19 00:03:35;;;;;;;17.05;8.90;;;4.10;99.90;;;;;;4975886;28;20023;-72
2022/01/19 00:06:01;;;;;;;14.60;8.68;;;4.10;99.90;;;;;;4979890;28;20225;-72
2022/01/19 00:08:28;;;;;;;13.32;9.20;;;4.10;99.90;;;;;;4988251;28;20030;-72
2022/01/19 00:10:54;;;;;;;14.95;9.55;;;4.10;99.90;;;;;;4976783;28;20031;-72
2022/01/19 00:13:20;;;;;;;13.32;9.55;;;4.10;99.90;;;;;;4985581;28;20117;-72
2022/01/19 00:15:46;;;;;;;16.85;8.90;;;4.10;99.90;;;;;;4974580;28;20053;-72
2022/01/19 00:18:12;;;;;;;12.05;8.70;;;4.10;99.90;;;;;;4973431;28;20034;-72
2022/01/19 00:20:38;;;;;;;13.88;9.10;;;4.10;99.90;;;;;;4980362;28;20030;-71
2022/01/19 00:23:05;;;;;;;16.88;9.48;;;4.10;99.90;;;;;;4977217;28;20110;-72
2022/01/19 00:25:32;;;;;;;14.13;9.18;;;4.10;99.90;;;;;;4973122;28;20037;-72
2022/01/19 00:27:58;;;;;;;16.40;9.18;;;4.00;99.90;;;;;;4976346;28;20042;-72
2022/01/19 00:30:24;;;;;;;13.98;8.65;;;4.10;99.90;;;;;;4987224;28;20069;-72
2022/01/19 00:32:50;;;;;;;12.13;8.43;;;4.10;99.90;;;;;;4973362;28;20112;-73
2022/01/19 00:35:15;;;;;;;13.27;8.18;;;4.20;99.90;;;;;;4981537;28;20062;-73
2022/01/19 00:37:42;;;;;;;11.57;8.45;;;4.20;99.90;;;;;;4984690;28;20034;-73
2022/01/19 00:40:10;;;;;;;16.30;9.43;;;4.20;99.90;;;;;;4979668;28;20045;-71
2022/01/19 00:42:36;;;;;;;16.33;9.20;;;4.10;99.90;;;;;;4982577;28;20462;-72
2022/01/19 00:45:04;;;;;;;13.65;8.93;;;4.20;99.90;;;;;;4975129;28;20117;-71
2022/01/19 00:47:29;;;;;;;13.02;9.10;;;4.10;99.90;;;;;;4979611;28;20386;-71
2022/01/19 00:49:55;;;;;;;11.68;8.20;;;4.10;99.90;;;;;;4975161;28;20027;-72
2022/01/19 00:52:21;;;;;;;11.77;7.38;;;4.10;99.90;;;;;;4975596;28;20101;-71
2022/01/19 00:54:46;;;;;;;12.77;7.40;;;4.20;99.90;;;;;;4981897;28;20109;-71
2022/01/19 00:57:12;;;;;;;11.35;6.80;;;4.20;99.90;;;;;;4980491;28;20110;-72
2022/01/19 00:59:38;;;;;;;14.30;6.88;;;4.30;99.90;;;;;;4978877;28;20034;-71
2022/01/19 01:02:05;;;;;;;10.63;6.88;;;4.30;99.90;;;;;;4969540;28;20526;-72
2022/01/19 01:04:32;;;;;;;8.82;6.43;;;4.30;99.90;;;;;;4979844;28;20038;-71
2022/01/19 01:06:58;;;;;;;9.15;6.45;;;4.40;99.90;;;;;;4979022;28;20022;-72
2022/01/19 01:09:24;;;;;;;8.88;6.35;;;4.40;99.90;;;;;;4981892;28;20093;-72
2022/01/19 01:12:02;;;;;;;8.70;6.60;;;4.40;99.90;;;;;;4980844;28;20030;-72
2022/01/19 01:20:02;;;;;;;11.30;7.60;;;4.40;99.90;;;;;;4981623;28;20084;-71
2022/01/19 01:22:27;;;;;;;9.77;7.53;;;4.30;99.90;;;;;;4982649;28;20042;-71
2022/01/19 01:24:53;;;;;;;9.88;7.30;;;4.30;99.90;;;;;;4974280;28;20505;-72
2022/01/19 01:27:19;;;;;;;10.45;7.47;;;4.30;99.90;;;;;;4978485;28;20035;-71
2022/01/19 01:29:44;;;;;;;9.85;7.38;;;4.30;99.90;;;;;;4974100;28;20141;-71
2022/01/19 01:32:10;;;;;;;7.68;6.47;;;4.30;99.90;;;;;;4980072;28;20038;-72
2022/01/19 01:34:36;;;;;;;8.38;6.55;;;4.30;99.90;;;;;;4988122;28;20466;-72
2022/01/19 01:37:02;;;;;;;9.93;6.63;;;4.40;99.90;;;;;;4985512;28;20402;-72
2022/01/19 01:39:28;;;;;;;11.73;6.38;;;4.30;99.90;;;;;;4989682;28;20026;-72
2022/01/19 01:41:54;;;;;;;8.63;5.82;;;4.30;99.90;;;;;;4981956;28;20040;-72
2022/01/19 01:44:19;;;;;;;9.73;6.90;;;4.30;99.90;;;;;;4978075;28;20031;-72
2022/01/19 01:46:52;;;;;;;7.88;6.95;;;4.30;99.90;;;;;;4981699;28;20042;-72
2022/01/19 01:54:46;;;;;;;8.63;6.97;;;4.30;99.90;;;;;;4982477;28;20108;-72
2022/01/19 01:57:12;;;;;;;8.23;6.22;;;4.30;99.90;;;;;;4985064;28;20023;-72
2022/01/19 01:59:37;;;;;;;7.97;6.35;;;4.30;99.90;;;;;;4983018;28;20031;-72
2022/01/19 02:02:03;;;;;;;9.52;6.43;;;4.30;99.90;;;;;;4978335;28;20465;-72
2022/01/19 02:04:30;;;;;;;8.50;6.28;;;4.30;99.90;;;;;;4984227;28;20371;-71
2022/01/19 02:09:25;;;;;;;8.65;6.20;;;4.30;99.90;;;;;;4978465;28;20399;-72
2022/01/19 02:25:57;;;;;;;8.48;7.10;;;4.30;99.90;;;;;;4984696;28;20030;-71
2022/01/19 02:41:52;;;;;;;11.35;9.30;;;4.30;99.90;;;;;;4971888;28;20033;-72
2022/01/19 02:49:55;;;;;;;12.70;9.85;;;4.20;99.90;;;;;;4984424;28;20031;-72
2022/01/19 02:52:22;;;;;;;11.48;10.18;;;4.20;99.90;;;;;;4976145;28;20030;-72
2022/01/19 02:54:49;;;;;;;11.23;9.48;;;4.20;99.90;;;;;;4977457;28;20153;-72
2022/01/19 02:57:16;;;;;;;10.60;9.48;;;4.20;99.90;;;;;;4983566;28;20030;-72
2022/01/19 03:10:38;;;;;;;11.57;10.05;;;4.30;99.90;;;;;;4978786;28;20073;-73
2022/01/19 03:13:04;;;;;;;12.93;10.45;;;4.30;99.90;;;;;;4985058;28;20057;-71
2022/01/19 03:15:30;;;;;;;12.98;10.55;;;4.20;99.90;;;;;;4981544;28;20461;-72
2022/01/19 03:17:58;;;;;;;12.40;10.68;;;4.20;99.90;;;;;;4984312;28;20033;-71
2022/01/19 03:20:25;;;;;;;14.07;10.45;;;4.20;99.90;;;;;;4985489;28;20038;-71
2022/01/19 03:23:13;;;;;;;13.95;11.15;;;4.20;99.90;;;;;;4978720;28;20077;-71
2022/01/19 03:25:39;;;;;;;13.07;10.65;;;4.10;99.90;;;;;;4986018;28;20049;-72
2022/01/19 03:28:06;;;;;;;11.88;10.13;;;4.10;99.90;;;;;;4969713;28;20471;-71
2022/01/19 03:30:32;;;;;;;13.23;11.30;;;4.10;99.90;;;;;;4978125;28;20030;-72
2022/01/19 03:32:58;;;;;;;11.32;10.10;;;4.00;99.90;;;;;;4981675;28;20027;-72
2022/01/19 03:35:24;;;;;;;11.27;9.43;;;4.00;99.90;;;;;;4983275;28;20061;-72
2022/01/19 03:37:50;;;;;;;11.35;10.15;;;4.00;99.90;;;;;;4978551;28;20026;-71
2022/01/19 03:40:15;;;;;;;11.20;9.98;;;4.00;99.90;;;;;;4983445;28;20114;-71
2022/01/19 03:42:41;;;;;;;12.73;10.90;;;4.00;99.90;;;;;;4981280;28;20030;-71
2022/01/19 03:45:09;;;;;;;10.30;9.13;;;4.00;99.90;;;;;;4970206;28;20093;-72
2022/01/19 03:47:41;;;;;;;10.32;9.23;;;3.90;99.90;;;;;;4980052;28;20114;-72
2022/01/19 03:50:08;;;;;;;10.45;8.80;;;3.90;99.90;;;;;;4975888;28;20549;-71
2022/01/19 03:52:34;;;;;;;10.57;8.30;;;3.90;99.90;;;;;;4984551;28;20054;-71
2022/01/19 03:54:59;;;;;;;9.05;7.68;;;3.90;99.90;;;;;;4982513;28;20057;-71
2022/01/19 03:57:25;;;;;;;8.75;7.53;;;3.90;99.90;;;;;;4978119;28;20026;-71
2022/01/19 03:59:51;;;;;;;8.48;7.18;;;3.80;99.90;;;;;;4982656;28;20056;-72
2022/01/19 04:02:17;;;;;;;8.65;6.63;;;3.80;99.90;;;;;;4980630;28;20438;-72
2022/01/19 04:07:15;;;;;;;9.07;7.28;;;3.80;99.90;;;;;;4982412;28;20137;-72
2022/01/19 04:09:45;;;;;;;8.38;7.30;;;3.80;99.90;;;;;;4984063;28;20125;-72
2022/01/19 04:12:16;;;;;;;8.50;7.32;;;3.80;99.90;;;;;;4983045;28;20065;-71
2022/01/19 04:14:42;;;;;;;8.98;7.18;;;3.80;99.90;;;;;;4971157;28;20492;-71
2022/01/19 04:17:10;;;;;;;9.07;7.53;;;3.70;99.90;;;;;;4982314;28;20050;-72
2022/01/19 04:19:43;;;;;;;8.30;7.47;;;3.70;99.90;;;;;;4979132;28;20034;-71
2022/01/19 04:22:13;;;;;;;12.63;7.35;;;3.70;99.90;;;;;;4974645;28;20039;-71
2022/01/19 04:24:40;;;;;;;9.48;7.05;;;3.70;99.90;;;;;;4973765;28;20467;-72
2022/01/19 04:35:10;;;;;;;7.97;6.43;;;3.60;99.90;;;;;;4974204;28;20034;-71
2022/01/19 04:37:51;;;;;;;7.65;6.75;;;3.60;99.90;;;;;;4973563;28;20041;-71
2022/01/19 05:07:21;;;;;;;8.95;7.78;;;3.50;99.90;;;;;;4982455;28;20061;-71
2022/01/19 05:14:56;;;;;;;13.88;8.90;;;3.50;99.90;;;;;;4983619;28;20130;-72
2022/01/19 05:17:22;;;;;;;12.18;9.57;;;3.50;99.90;;;;;;4979656;28;20133;-72
2022/01/19 05:19:47;;;;;;;12.68;9.30;;;3.50;99.90;;;;;;4980226;28;20027;-71
2022/01/19 05:22:13;;;;;;;13.40;10.23;;;3.40;99.90;;;;;;4988192;28;20101;-72
2022/01/19 05:24:38;;;;;;;14.02;10.20;;;3.40;99.90;;;;;;4988209;28;20045;-72
2022/01/19 05:27:04;;;;;;;11.88;9.00;;;3.40;99.90;;;;;;4980474;28;20089;-72
2022/01/19 05:29:30;;;;;;;9.02;7.53;;;3.40;99.90;;;;;;4979149;28;20072;-71
2022/01/19 05:31:55;;;;;;;9.88;8.13;;;3.40;99.90;;;;;;4976848;28;20117;-71
2022/01/19 05:34:21;;;;;;;8.57;7.32;;;3.40;99.90;;;;;;4975492;28;20057;-73
2022/01/19 05:36:46;;;;;;;10.27;7.80;;;3.40;99.90;;;;;;4979532;28;20018;-72
2022/01/19 05:39:12;;;;;;;8.38;7.38;;;3.40;99.90;;;;;;4975865;28;20027;-73
2022/01/19 05:41:38;;;;;;;9.82;7.60;;;3.30;99.90;;;;;;4976605;28;20034;-72
2022/01/19 05:44:04;;;;;;;9.23;7.38;;;3.30;99.90;;;;;;4979718;28;20081;-73
2022/01/19 05:46:29;;;;;;;8.85;7.50;;;3.30;99.90;;;;;;4978134;28;20058;-72
2022/01/19 05:48:55;;;;;;;10.32;8.15;;;3.30;99.90;;;;;;4980476;28;20033;-73
2022/01/19 05:51:20;;;;;;;9.43;7.15;;;3.30;99.90;;;;;;4980461;28;20030;-72
2022/01/19 05:53:46;;;;;;;8.10;7.30;;;3.30;99.90;;;;;;4981064;28;20113;-72
2022/01/19 05:56:11;;;;;;;9.52;7.40;;;3.30;99.90;;;;;;4974737;28;20439;-72
2022/01/19 05:58:37;;;;;;;7.72;6.90;;;3.40;99.90;;;;;;4978474;28;20038;-72
2022/01/19 06:01:02;;;;;;;8.95;7.22;;;3.30;99.90;;;;;;4982739;28;20039;-71
2022/01/19 06:03:28;;;;;;;9.15;7.30;;;3.30;99.90;;;;;;4970555;28;20036;-72
2022/01/19 06:05:54;;;;;;;8.70;6.57;;;3.30;99.90;;;;;;4973943;28;20157;-72
2022/01/19 06:10:48;;;;;;;9.15;6.95;;;3.30;99.90;;;;;;4976701;28;20022;-71
2022/01/19 06:13:16;;;;;;;9.20;6.60;;;3.30;99.90;;;;;;4977991;28;20490;-72
2022/01/19 06:15:42;;;;;;;8.85;6.70;;;3.30;99.90;;;;;;4972309;28;20030;-71
2022/01/19 06:18:08;;;;;;;7.80;6.55;;;3.30;99.90;;;;;;4981960;28;20038;-72
2022/01/19 06:20:34;;;;;;;8.25;6.78;;;3.30;99.90;;;;;;4977476;28;20022;-72
2022/01/19 06:22:59;;;;;;;7.55;6.32;;;3.20;99.90;;;;;;4976109;28;20026;-72
2022/01/19 06:25:25;;;;;;;8.23;6.88;;;3.20;99.90;;;;;;4976067;28;20405;-72
2022/01/19 06:27:51;;;;;;;6.90;5.72;;;3.30;99.90;;;;;;4972797;28;20041;-71
2022/01/19 06:30:16;;;;;;;8.93;6.20;;;3.30;99.90;;;;;;4985048;28;20038;-71
2022/01/19 06:32:42;;;;;;;7.47;6.18;;;3.30;99.90;;;;;;4983756;28;20034;-72
2022/01/19 06:35:09;;;;;;;6.75;5.80;;;3.30;99.90;;;;;;4970538;28;20502;-71
2022/01/19 06:37:35;;;;;;;7.00;5.50;;;3.30;99.90;;;;;;4972802;28;20034;-71
2022/01/19 06:40:02;;;;;;;7.85;5.80;;;3.30;99.90;;;;;;4979076;28;20053;-72
2022/01/19 06:42:29;;;;;;;6.75;5.68;;;3.30;99.90;;;;;;4978434;28;20022;-72
2022/01/19 06:44:55;;;;;;;6.72;6.03;;;3.30;99.90;;;;;;4972382;28;20034;-72
2022/01/19 06:47:20;;;;;;;8.07;6.78;;;3.20;99.90;;;;;;4975274;28;20230;-72
2022/01/19 06:49:46;;;;;;;8.07;6.55;;;3.20;99.90;;;;;;4979184;28;20034;-72
2022/01/19 06:52:12;;;;;;;7.78;6.63;;;3.20;99.90;;;;;;4981303;28;20080;-72
2022/01/19 06:54:37;;;;;;;7.03;6.07;;;3.20;99.90;;;;;;4982970;28;20172;-72
2022/01/19 06:57:03;;;;;;;7.60;6.32;;;3.30;99.90;;;;;;4983932;28;20111;-72
2022/01/19 06:59:29;;;;;;;7.40;5.80;;;3.20;99.90;;;;;;4987970;28;20030;-72
2022/01/19 07:01:55;;;;;;;6.72;6.03;;;3.30;99.90;;;;;;4983315;28;20050;-71
2022/01/19 07:04:21;;;;;;;6.30;4.93;;;3.30;99.90;;;;;;4980178;28;20030;-72
2022/01/19 07:06:47;;;;;;;7.43;5.32;;;3.20;99.90;;;;;;4976211;28;20058;-73
2022/01/19 07:09:13;;;;;;;6.53;5.60;;;3.30;99.90;;;;;;4977052;28;20080;-73
2022/01/19 07:11:39;;;;;;;6.15;5.55;;;3.30;99.90;;;;;;4978281;28;20042;-72
2022/01/19 07:14:06;;;;;;;7.78;5.72;;;3.30;99.90;;;;;;4985891;28;20026;-72
2022/01/19 07:16:31;;;;;;;6.65;5.30;;;3.20;99.90;;;;;;4975116;28;20034;-72
2022/01/19 07:18:57;;;;;;;6.38;5.40;;;3.30;99.90;;;;;;4981651;28;20026;-71
2022/01/19 07:21:23;;;;;;;9.23;6.93;;;3.30;99.90;;;;;;4974068;28;20447;-72
2022/01/19 07:23:49;;;;;;;5.68;4.80;;;3.20;99.90;;;;;;4986493;28;20101;-72
2022/01/19 07:26:14;;;;;;;5.65;5.13;;;3.20;99.90;;;;;;4983651;28;20031;-71
2022/01/19 07:28:40;;;;;;;5.95;5.35;;;3.20;99.90;;;;;;4988658;28;20072;-71
2022/01/19 07:31:06;;;;;;;5.93;5.30;;;3.20;99.90;;;;;;4988061;28;20022;-72
2022/01/19 07:33:32;;;;;;;5.78;5.28;;;3.20;99.90;;;;;;4971297;28;20109;-71
2022/01/19 07:35:58;;;;;;;6.75;5.78;;;3.20;99.90;;;;;;4978016;28;20038;-71
2022/01/19 07:38:24;;;;;;;6.72;5.88;;;3.20;99.90;;;;;;4973649;28;20041;-71
2022/01/19 07:40:50;;;;;;;7.65;6.85;;;3.20;99.90;;;;;;4971909;28;20038;-72
2022/01/19 07:43:16;;;;;;;7.00;6.30;;;3.20;99.90;;;;;;4981994;28;20030;-72
2022/01/19 07:45:42;;;;;;;6.65;5.93;;;3.20;99.90;;;;;;4986625;28;20538;-72
2022/01/19 07:48:08;;;;;;;7.05;6.35;;;3.20;99.90;;;;;;4968422;28;20471;-72
2022/01/19 07:50:34;;;;;;;7.68;5.90;;;3.20;99.90;;;;;;4975424;28;20030;-72
2022/01/19 07:53:00;;;;;;;7.05;6.30;;;3.20;99.90;;;;;;4986023;28;20469;-72
2022/01/19 07:55:25;;;;;;;7.13;6.43;;;3.20;99.90;;;;;;4975963;28;20336;-72
2022/01/19 07:57:51;;;;;;;11.55;6.28;;;3.20;99.90;;;;;;4981587;28;20018;-72
2022/01/19 08:00:18;;;;;;;11.52;7.20;;;3.20;99.90;;;;;;4982141;28;20015;-72
2022/01/19 08:02:47;;;;;;;7.80;7.00;;;3.20;99.90;;;;;;4986589;28;20023;-71
2022/01/19 08:05:13;;;;;;;9.13;7.60;;;3.20;99.90;;;;;;4981404;28;20039;-71
2022/01/19 08:07:38;;;;;;;23.35;11.27;;;3.20;99.90;;;;;;4972653;28;20188;-72
2022/01/19 08:10:07;;;;;;;17.15;9.65;;;3.20;99.90;;;;;;4977029;28;20122;-72
2022/01/19 08:12:33;;;;;;;10.98;7.55;;;3.20;99.90;;;;;;4983038;28;20030;-72
2022/01/19 08:14:59;;;;;;;25.75;9.70;;;3.20;99.90;;;;;;4987174;28;20030;-72
2022/01/19 08:17:29;;;;;;;12.55;9.77;;;3.20;99.90;;;;;;4986907;28;20030;-72
2022/01/19 08:19:56;;;;;;;11.02;8.32;;;3.20;99.90;;;;;;4971629;28;20093;-72
2022/01/19 08:22:22;;;;;;;12.93;10.00;;;3.20;99.90;;;;;;4984097;28;20029;-72
2022/01/19 08:24:48;;;;;;;14.13;11.27;;;3.20;99.90;;;;;;4981437;28;20061;-72
2022/01/19 08:27:13;;;;;;;12.02;10.68;;;3.20;99.90;;;;;;4982584;28;20050;-72
2022/01/19 08:29:39;;;;;;;12.15;10.73;;;3.20;99.90;;;;;;4963127;28;20050;-73
2022/01/19 08:32:05;;;;;;;13.30;11.57;;;3.10;99.90;;;;;;4964351;28;20495;-73
2022/01/19 08:34:31;;;;;;;16.10;12.98;;;3.20;99.90;;;;;;4954664;28;20427;-74
2022/01/19 08:36:58;;;;;;;15.77;12.85;;;3.20;99.90;;;;;;4973479;28;20023;-76
2022/01/19 08:39:24;;;;;;;13.38;11.98;;;3.20;99.90;;;;;;4970593;28;20030;-76
2022/01/19 08:41:50;;;;;;;14.90;12.48;;;3.20;99.90;;;;;;4957211;28;20023;-74
2022/01/19 08:44:16;;;;;;;15.10;12.63;;;3.20;99.90;;;;;;4958010;28;20053;-71
2022/01/19 08:46:42;;;;;;;16.13;12.55;;;3.20;99.90;;;;;;4955728;28;20126;-70
2022/01/19 08:49:07;;;;;;;15.45;13.57;;;3.30;99.90;;;;;;4961996;28;20089;-73
2022/01/19 08:51:33;;;;;;;17.92;13.85;;;3.20;99.90;;;;;;4958869;28;20042;-71
2022/01/19 08:53:59;;;;;;;19.02;14.00;;;3.20;99.90;;;;;;4960096;28;20049;-74
2022/01/19 08:56:24;;;;;;;17.65;13.07;;;3.20;99.90;;;;;;4966482;28;20035;-73
2022/01/19 08:58:50;;;;;;;18.85;14.32;;;3.20;99.90;;;;;;4963252;28;20279;-75
2022/01/19 09:01:16;;;;;;;20.90;14.18;;;3.20;99.90;;;;;;4953956;28;20025;-74
2022/01/19 09:03:42;;;;;;;17.60;13.88;;;3.10;99.90;;;;;;4970690;28;20033;-74
2022/01/19 09:06:07;;;;;;;16.98;14.77;;;3.10;99.90;;;;;;4980722;28;20081;-74
2022/01/19 09:08:34;;;;;;;17.92;15.10;;;3.10;99.90;;;;;;4965942;28;20027;-73
2022/01/19 09:11:01;;;;;;;16.75;13.50;;;3.10;99.90;;;;;;4965257;28;20039;-73
2022/01/19 09:13:27;;;;;;;19.55;14.77;;;3.10;99.90;;;;;;4957443;28;20220;-74
2022/01/19 09:15:52;;;;;;;19.98;15.15;;;3.10;99.90;;;;;;4966500;28;20489;-74
2022/01/19 09:18:18;;;;;;;20.27;15.55;;;3.20;99.90;;;;;;4962409;28;20063;-75
2022/01/19 09:20:44;;;;;;;17.35;13.35;;;3.10;99.90;;;;;;4951807;28;20041;-72
2022/01/19 09:23:10;;;;;;;17.30;13.40;;;3.10;99.90;;;;;;4955763;28;20028;-73
2022/01/19 09:25:35;;;;;;;19.02;14.98;;;3.10;99.90;;;;;;4962878;28;20241;-73
2022/01/19 09:28:01;;;;;;;23.83;16.38;;;3.10;99.90;;;;;;4961078;28;20027;-73
2022/01/19 09:30:27;;;;;;;21.38;16.58;;;3.20;99.90;;;;;;4986801;28;20036;-73
2022/01/19 09:33:06;;;;;;;20.20;15.52;;;3.10;99.90;;;;;;4977357;28;20553;-73
2022/01/19 09:35:50;;;;;;;23.20;17.25;;;3.10;99.90;;;;;;4978996;28;20035;-74
2022/01/19 09:38:19;;;;;;;23.23;17.00;;;3.20;99.90;;;;;;4971610;28;20023;-73
2022/01/19 09:40:45;;;;;;;24.92;16.33;;;3.10;99.90;;;;;;4984143;28;20023;-73
2022/01/19 09:43:11;;;;;;;20.90;15.77;;;3.20;99.90;;;;;;4966807;28;20031;-73
2022/01/19 09:45:37;;;;;;;20.33;15.38;;;3.20;99.90;;;;;;4977845;28;20394;-73
2022/01/19 09:48:04;;;;;;;25.88;17.23;;;3.20;99.90;;;;;;4969338;28;20038;-73
2022/01/19 09:50:29;;;;;;;23.45;16.95;;;3.30;99.90;;;;;;4983891;28;20057;-73
2022/01/19 09:52:55;;;;;;;20.48;15.30;;;3.30;99.90;;;;;;4984858;28;20446;-73
2022/01/19 09:55:21;;;;;;;24.63;16.88;;;3.30;99.90;;;;;;4983150;28;20100;-73
2022/01/19 09:57:47;;;;;;;21.95;16.02;;;3.40;99.90;;;;;;4977671;28;20033;-74
2022/01/19 10:00:13;;;;;;;21.42;15.07;;;3.40;99.90;;;;;;4981446;28;20030;-73
2022/01/19 10:02:38;;;;;;;21.27;15.43;;;3.40;99.90;;;;;;4989705;28;20030;-73
2022/01/19 10:05:07;;;;;;;24.45;15.80;;;3.40;99.90;;;;;;4982987;28;20108;-74
2022/01/19 10:07:32;;;;;;;21.92;16.60;;;3.50;99.90;;;;;;4988783;28;20034;-75
2022/01/19 10:10:02;;;;;;;25.10;16.10;;;3.50;99.90;;;;;;4988001;28;20142;-75
2022/01/19 10:18:08;;;;;;;26.63;16.77;;;3.50;99.90;;;;;;4987500;28;20563;-75
2022/01/19 10:20:34;;;;;;;22.05;15.63;;;3.60;99.90;;;;;;4990126;28;20121;-74
2022/01/19 10:22:59;;;;;;;23.98;15.85;;;3.60;99.90;;;;;;4980182;28;20117;-73
2022/01/19 10:25:46;;;;;;;22.00;14.80;;;3.70;99.90;;;;;;4969687;28;20134;-73
2022/01/19 10:28:11;;;;;;;22.13;16.15;;;3.70;99.90;;;;;;4976544;28;20050;-73
2022/01/19 10:30:37;;;;;;;27.20;16.08;;;3.70;99.90;;;;;;4987092;28;20034;-73
2022/01/19 10:33:03;;;;;;;27.33;16.30;;;3.70;99.90;;;;;;4973996;28;20038;-73
2022/01/19 10:35:30;;;;;;;24.42;15.73;;;3.70;99.90;;;;;;4982601;28;20042;-73
2022/01/19 10:38:26;;;;;;;20.88;14.35;;;3.70;99.90;;;;;;4978107;28;20038;-73
2022/01/19 10:41:04;;;;;;;24.50;16.15;;;3.70;99.90;;;;;;4976112;28;20564;-73
2022/01/19 10:43:48;;;;;;;19.92;13.98;;;3.70;99.90;;;;;;4982460;28;20049;-73
2022/01/19 10:46:25;;;;;;;23.10;15.00;;;3.70;99.90;;;;;;4978093;28;20030;-73
2022/01/19 10:48:58;;;;;;;24.55;15.73;;;3.70;99.90;;;;;;4984734;28;20449;-73
2022/01/19 10:51:24;;;;;;;21.55;14.43;;;;;;;;;;4973794;28;20031;-73
2022/01/19 10:54:09;;;;;;;22.50;15.15;;;;;;;;;;4986037;28;20379;-73
2022/01/19 10:56:35;;;;;;;23.48;14.70;;;;;;;;;;4974631;28;20132;-73
2022/01/19 10:59:03;;;;;;;21.00;14.52;;;;;;;;;;4978093;28;20026;-73
2022/01/19 11:01:51;;;;;;;26.00;15.32;;;;;;;;;;4983405;28;20499;-73
2022/01/19 11:04:23;;;;;;;21.85;14.98;;;;;;;;;;4984634;28;20030;-73
2022/01/19 11:06:51;;;;;;;25.85;14.75;;;;;;;;;;4981524;28;20160;-73
2022/01/19 11:09:22;;;;;;;20.25;14.45;;;;;;;;;;4983757;28;20438;-73
2022/01/19 11:11:48;;;;;;;24.00;16.17;;;;;;;;;;4979799;28;20114;-73
2022/01/19 11:14:16;;;;;;;24.95;15.88;;;;;;;;;;4984888;28;20084;-73
2022/01/19 11:16:42;;;;;;;20.95;14.27;;;;;;;;;;4983425;28;20034;-73
2022/01/19 11:19:09;;;;;;;22.88;15.57;;;;;;;;;;4987715;28;20030;-73
2022/01/19 11:21:52;;;;;;;35.53;25.05;;;;;;;;;;4988127;28;20034;-73
2022/01/19 11:24:30;;;;;;;22.38;14.25;;;;;;;;;;4977615;28;20066;-72
2022/01/19 11:26:56;;;;;;;18.20;13.13;;;;;;;;;;4976483;28;20524;-74
2022/01/19 11:29:23;;;;;;;21.17;13.18;;;;;;;;;;4981856;28;20046;-73
2022/01/19 11:31:50;;;;;;;18.95;12.90;;;;;;;;;;4981945;28;20030;-73
2022/01/19 11:34:16;;;;;;;21.02;13.15;;;;;;;;;;4981844;28;20039;-73
2022/01/19 11:36:43;;;;;;;20.20;13.15;;;;;;;;;;4982560;28;20121;-73
2022/01/19 11:39:21;;;;;;;19.20;13.15;;;;;;;;;;4975468;28;20031;-73
2022/01/19 11:41:55;;;;;;;19.52;12.90;;;3.90;99.90;;;;;;4973865;28;20028;-74
2022/01/19 11:44:41;;;;;;;18.75;12.88;;;3.90;99.90;;;;;;4978259;28;20031;-74
2022/01/19 11:47:11;;;;;;;22.17;13.70;;;3.80;99.90;;;;;;4980757;28;20034;-74
2022/01/19 11:49:57;;;;;;;21.25;13.40;;;3.80;99.90;;;;;;4975317;28;20041;-74
2022/01/19 11:52:28;;;;;;;19.33;13.40;;;3.80;99.90;;;;;;4974326;28;20483;-74
2022/01/19 11:55:17;;;;;;;19.58;13.35;;;3.80;99.90;;;;;;4975708;28;20034;-74
2022/01/19 11:57:45;;;;;;;20.17;13.20;;;3.80;99.90;;;;;;4980363;28;20038;-72
2022/01/19 12:00:12;;;;;;;20.20;13.13;;;3.90;99.90;;;;;;4975886;28;20033;-74
2022/01/19 12:02:41;;;;;;;19.67;13.18;;;3.90;99.90;;;;;;4967841;28;20386;-74
2022/01/19 12:05:10;;;;;;;18.67;13.38;;;3.90;99.90;;;;;;4979188;28;20092;-74
2022/01/19 12:07:59;;;;;;;24.73;14.18;;;3.90;99.90;;;;;;4981163;28;20046;-75
2022/01/19 12:10:31;;;;;;;19.65;13.45;;;3.90;99.90;;;;;;4970943;28;20039;-76
2022/01/19 12:16:18;;;;;;;21.05;13.00;;;3.90;99.90;;;;;;4975783;28;20110;-74
2022/01/19 12:18:53;;;;;;;23.65;14.57;;;4.00;99.90;;;;;;4974274;28;20042;-74
2022/01/19 12:21:21;;;;;;;24.35;14.45;;;4.00;99.90;;;;;;4974597;28;20130;-74
2022/01/19 12:23:50;;;;;;;24.27;13.48;;;4.00;99.90;;;;;;4978490;28;20022;-74
2022/01/19 12:26:16;;;;;;;21.27;14.00;;;4.00;99.90;;;;;;4975644;28;20824;-74
2022/01/19 12:28:53;;;;;;;20.23;15.20;;;4.00;99.90;;;;;;4979633;28;20061;-73
2022/01/19 12:31:44;;;;;;;23.70;15.23;;;4.10;99.90;;;;;;4981772;28;20565;-74
2022/01/19 12:34:09;;;;;;;24.13;14.57;;;4.10;99.90;;;;;;4976316;28;20030;-74
2022/01/19 12:36:55;;;;;;;22.17;14.57;;;4.10;99.90;;;;;;4978600;28;20478;-74
2022/01/19 12:39:26;;;;;;;22.15;12.98;;;4.10;99.90;;;;;;4972299;28;20449;-74
2022/01/19 12:42:00;;;;;;;22.60;13.77;;;4.10;99.90;;;;;;4976672;28;20026;-73
2022/01/19 12:44:35;;;;;;;23.75;14.90;;;4.00;99.90;;;;;;4975777;28;20168;-73
2022/01/19 12:47:02;;;;;;;19.23;13.40;;;4.00;99.90;;;;;;4977926;28;20109;-74
2022/01/19 12:49:29;;;;;;;20.48;14.65;;;4.00;99.90;;;;;;4978061;28;20044;-74
2022/01/19 12:51:55;;;;;;;23.58;14.50;;;4.00;99.90;;;;;;4982580;28;20489;-75
2022/01/19 12:54:29;;;;;;;19.15;13.65;;;3.90;99.90;;;;;;4977448;28;20101;-73
2022/01/19 12:57:03;;;;;;;22.77;13.70;;;4.00;99.90;;;;;;4979730;28;20027;-74
2022/01/19 12:59:31;;;;;;;22.48;14.05;;;3.90;99.90;;;;;;4980305;28;20034;-74
2022/01/19 13:01:57;;;;;;;23.50;13.82;;;4.00;99.90;;;;;;4974531;28;20061;-74
2022/01/19 13:04:28;;;;;;;20.50;14.00;;;3.90;99.90;;;;;;4986795;28;20034;-74
2022/01/19 13:06:57;;;;;;;23.15;13.95;;;3.90;99.90;;;;;;4981426;28;20069;-74
2022/01/19 13:09:34;;;;;;;21.50;14.68;;;3.90;99.90;;;;;;4977568;28;20026;-74
2022/01/19 13:12:11;;;;;;;25.17;15.38;;;3.90;99.90;;;;;;4980945;28;20387;-73
2022/01/19 13:14:36;;;;;;;20.42;14.07;;;3.90;99.90;;;;;;4987073;28;20205;-73
2022/01/19 13:17:02;;;;;;;22.85;14.55;;;3.90;99.90;;;;;;4979781;28;20294;-74
2022/01/19 13:19:28;;;;;;;21.77;15.23;;;3.90;99.90;;;;;;4979739;28;20035;-73
2022/01/19 13:22:08;;;;;;;22.25;14.32;;;3.90;99.90;;;;;;4974529;28;20031;-73
2022/01/19 13:24:36;;;;;;;28.25;15.05;;;3.90;99.90;;;;;;4984603;28;20458;-73
2022/01/19 13:27:05;;;;;;;22.95;14.52;;;3.90;99.90;;;;;;4987634;28;20089;-73
2022/01/19 13:29:41;;;;;;;22.90;15.85;;;3.90;99.90;;;;;;4983529;28;20101;-73
2022/01/19 13:32:08;;;;;;;26.75;16.85;;;3.90;99.90;;;;;;4982377;28;20403;-73
2022/01/19 13:34:53;;;;;;;26.58;16.88;;;3.90;99.90;;;;;;4985469;28;20077;-74
2022/01/19 13:37:20;;;;;;;27.38;16.23;;;3.90;99.90;;;;;;4976488;28;20395;-74
2022/01/19 13:39:59;;;;;;;32.25;19.20;;;3.90;99.90;;;;;;4986366;28;20029;-73
2022/01/19 13:42:44;;;;;;;31.60;18.42;;;3.90;99.90;;;;;;4985370;28;20490;-73
2022/01/19 13:45:25;;;;;;;30.95;18.38;;;3.80;99.90;;;;;;4979226;28;20035;-74
2022/01/19 13:50:36;;;;;;;24.33;15.98;;;3.90;99.90;;;;;;4984107;28;20038;-74
2022/01/19 13:53:03;;;;;;;27.50;16.90;;;3.90;99.90;;;;;;4977626;28;20034;-73
2022/01/19 13:55:29;;;;;;;29.25;16.50;;;3.80;99.90;;;;;;4975082;28;20480;-74
2022/01/19 13:58:11;;;;;;;33.22;18.50;;;3.90;99.90;;;;;;4982880;28;20028;-74
2022/01/19 14:00:55;;;;;;;28.27;17.17;;;3.80;99.90;;;;;;4973906;28;20097;-73
2022/01/19 14:03:23;;;;;;;32.25;18.35;;;3.90;99.90;;;;;;4974504;28;20121;-74
2022/01/19 14:05:51;;;;;;;27.50;17.83;;;3.80;99.90;;;;;;4973465;28;20041;-74
2022/01/19 14:08:32;;;;;;;24.83;16.33;;;3.80;99.90;;;;;;4984181;28;20058;-74
2022/01/19 14:10:59;;;;;;;20.85;15.00;;;3.80;99.90;;;;;;4982692;28;20521;-73
2022/01/19 14:13:33;;;;;;;27.25;15.23;;;3.80;99.90;;;;;;4989478;28;20614;-74
2022/01/19 14:16:22;;;;;;;26.92;14.68;;;3.80;99.90;;;;;;4970518;28;20372;-74
2022/01/19 14:19:16;;;;;;;22.10;14.77;;;3.80;99.90;;;;;;4982373;28;20023;-74
2022/01/19 14:22:03;;;;;;;22.05;14.98;;;3.70;99.90;;;;;;4972712;28;20395;-74
2022/01/19 14:24:44;;;;;;;21.85;14.25;;;3.80;99.90;;;;;;4983768;28;20044;-73
2022/01/19 14:27:14;;;;;;;31.58;19.10;;;3.70;99.90;;;;;;4975177;28;20035;-73
2022/01/19 14:29:59;;;;;;;39.78;21.55;;;3.70;99.90;;;;;;4985472;28;20066;-73
2022/01/19 14:32:54;;;;;;;23.70;15.65;;;3.70;99.90;;;;;;4984633;28;20046;-74
2022/01/19 14:35:46;;;;;;;24.20;15.95;;;3.70;99.90;;;;;;4979426;28;20042;-73
2022/01/19 14:38:32;;;;;;;25.52;16.55;;;3.70;99.90;;;;;;4973895;28;20031;-73
2022/01/19 14:41:06;;;;;;;23.17;15.85;;;3.70;99.90;;;;;;4982340;28;20034;-73
2022/01/19 14:44:21;;;;;;;23.38;16.50;;;3.70;99.90;;;;;;4980122;28;20072;-74
2022/01/19 14:47:13;;;;;;;23.67;16.15;;;3.70;99.90;;;;;;4968451;28;20031;-73
2022/01/19 14:49:38;;;;;;;26.00;17.10;;;3.70;99.90;;;;;;4985184;28;20026;-74
2022/01/19 14:52:04;;;;;;;23.10;15.45;;;3.70;99.90;;;;;;4974779;28;20557;-73
2022/01/19 14:54:30;;;;;;;28.40;17.73;;;3.60;99.90;;;;;;4979965;28;20081;-72